Time;durP1;ratioP1;P1;durP2;ratioP2;P2;SDS_P1;SDS_P2;PMS_P1;PMS_P2;Temp;Humidity;BMP_temperature;BMP_pressure;BME280_temperature;BME280_humidity;BME280_pressure;Samples;Min_cycle;Max_cycle;Signal;HPM_P1;HPM_P2
2024/03/27 00:00:48;;;;;;;3.65;2.00;;;11.90;99.90;;;;;;4161890;28;20044;-59
2024/03/27 00:02:48;;;;;;;4.18;1.85;;;11.90;99.90;;;;;;4160708;28;20029;-59
2024/03/27 00:04:49;;;;;;;4.57;1.90;;;11.90;99.90;;;;;;4161754;28;20080;-57
2024/03/27 00:06:49;;;;;;;4.32;2.40;;;11.90;99.90;;;;;;4160892;28;20040;-59
2024/03/27 00:08:50;;;;;;;3.03;1.70;;;11.90;99.90;;;;;;4161926;28;20478;-59
2024/03/27 00:10:50;;;;;;;4.22;2.13;;;11.90;99.90;;;;;;4161403;28;20049;-59
2024/03/27 00:12:51;;;;;;;5.63;2.03;;;11.90;99.90;;;;;;4160684;28;20083;-59
2024/03/27 00:14:52;;;;;;;7.65;2.45;;;11.90;99.90;;;;;;4161894;28;20509;-58
2024/03/27 00:16:53;;;;;;;4.93;2.42;;;11.90;99.90;;;;;;4161353;28;20045;-58
2024/03/27 00:18:53;;;;;;;5.60;2.30;;;11.90;99.90;;;;;;4160466;28;20056;-59
2024/03/27 00:20:54;;;;;;;3.65;2.00;;;11.90;99.90;;;;;;4160965;28;20041;-59
2024/03/27 00:22:54;;;;;;;5.30;2.22;;;11.90;99.90;;;;;;4161472;28;20040;-59
2024/03/27 00:24:55;;;;;;;4.70;2.13;;;11.90;99.90;;;;;;4160668;28;20509;-59
2024/03/27 00:26:55;;;;;;;4.55;1.90;;;11.90;99.90;;;;;;4160237;28;20041;-59
2024/03/27 00:28:56;;;;;;;4.55;2.08;;;12.00;99.90;;;;;;4160457;28;20025;-59
2024/03/27 00:30:56;;;;;;;2.92;1.73;;;12.00;99.90;;;;;;4161378;28;20034;-59
2024/03/27 00:32:58;;;;;;;3.38;1.92;;;12.00;99.90;;;;;;4161383;28;20111;-59
2024/03/27 00:34:59;;;;;;;3.88;2.05;;;12.10;99.90;;;;;;4160479;28;20059;-59
2024/03/27 00:37:00;;;;;;;3.95;1.70;;;12.00;99.90;;;;;;4161118;28;20030;-60
2024/03/27 00:39:01;;;;;;;4.40;1.65;;;12.00;99.90;;;;;;4161217;28;20040;-59
2024/03/27 00:41:03;;;;;;;4.65;2.08;;;12.00;99.90;;;;;;4160758;28;20049;-59
2024/03/27 00:43:04;;;;;;;3.30;1.70;;;12.10;99.90;;;;;;4160054;28;20579;-59
2024/03/27 00:45:05;;;;;;;3.42;1.80;;;12.10;99.90;;;;;;4160113;28;20133;-59
2024/03/27 00:47:05;;;;;;;3.42;1.75;;;12.10;99.90;;;;;;4157504;28;20077;-59
2024/03/27 00:49:07;;;;;;;4.60;2.38;;;12.20;99.90;;;;;;4159286;28;20513;-59
2024/03/27 00:51:07;;;;;;;4.32;2.00;;;12.20;99.90;;;;;;4160913;28;20037;-59
2024/03/27 00:53:11;;;;;;;3.53;2.03;;;12.20;99.90;;;;;;4161652;28;20535;-68
2024/03/27 00:55:11;;;;;;;2.75;1.83;;;12.20;99.90;;;;;;4160625;28;20069;-64
2024/03/27 00:57:12;;;;;;;2.85;1.80;;;12.20;99.90;;;;;;4160544;28;20038;-60
2024/03/27 00:59:13;;;;;;;6.10;2.00;;;12.20;99.90;;;;;;4161254;28;20041;-60
2024/03/27 01:01:13;;;;;;;3.88;2.08;;;12.20;99.90;;;;;;4157507;28;20069;-59
2024/03/27 01:03:15;;;;;;;2.33;1.88;;;12.20;99.90;;;;;;4179858;28;20481;-59
2024/03/27 01:05:15;;;;;;;2.53;1.42;;;12.30;99.90;;;;;;4158722;28;20041;-59
2024/03/27 01:07:16;;;;;;;4.78;1.70;;;12.30;99.90;;;;;;4159177;28;20508;-61
2024/03/27 01:09:18;;;;;;;2.80;1.80;;;12.30;99.90;;;;;;4159684;28;20178;-60
2024/03/27 01:11:19;;;;;;;3.37;2.10;;;12.30;99.90;;;;;;4159549;28;20570;-59
2024/03/27 01:13:20;;;;;;;3.22;1.90;;;12.30;99.90;;;;;;4161279;28;20276;-59
2024/03/27 01:15:22;;;;;;;4.28;2.10;;;12.30;99.90;;;;;;4160443;28;20432;-59
2024/03/27 01:17:22;;;;;;;2.70;1.60;;;12.30;99.90;;;;;;4159528;28;20037;-59
2024/03/27 01:19:23;;;;;;;4.72;2.03;;;12.30;99.90;;;;;;4160761;28;20064;-59
2024/03/27 01:21:23;;;;;;;5.03;2.00;;;12.30;99.90;;;;;;4160549;28;20029;-59
2024/03/27 01:23:24;;;;;;;3.60;1.95;;;12.30;99.90;;;;;;4161331;28;20182;-59
2024/03/27 01:25:25;;;;;;;3.28;2.20;;;12.20;99.90;;;;;;4159846;28;20405;-59
2024/03/27 01:27:25;;;;;;;3.38;2.00;;;12.20;99.90;;;;;;4159388;28;20037;-59
2024/03/27 01:29:26;;;;;;;2.45;1.70;;;12.20;99.90;;;;;;4160899;28;20061;-59
2024/03/27 01:31:26;;;;;;;3.63;2.45;;;12.20;99.90;;;;;;4159567;28;20042;-59
2024/03/27 01:33:27;;;;;;;3.28;1.92;;;12.20;99.90;;;;;;4161162;28;20042;-59
2024/03/27 01:35:27;;;;;;;5.85;2.15;;;12.10;99.90;;;;;;4160906;28;20428;-59
2024/03/27 01:37:28;;;;;;;2.63;2.00;;;12.10;99.90;;;;;;4164599;28;20055;-59
2024/03/27 01:39:28;;;;;;;3.75;2.35;;;12.10;99.90;;;;;;4162420;28;20430;-59
2024/03/27 01:41:29;;;;;;;3.50;2.10;;;12.10;99.90;;;;;;4162333;28;20128;-59
2024/03/27 01:43:30;;;;;;;3.08;2.17;;;12.10;99.90;;;;;;4163573;28;20033;-59
2024/03/27 01:45:31;;;;;;;4.25;2.15;;;12.10;99.90;;;;;;4161531;28;20045;-59
2024/03/27 01:47:32;;;;;;;3.72;2.15;;;12.00;99.90;;;;;;4158960;28;20034;-59
2024/03/27 01:49:33;;;;;;;4.00;2.42;;;12.00;99.90;;;;;;4164433;28;20517;-59
2024/03/27 01:51:33;;;;;;;3.67;2.03;;;12.00;99.90;;;;;;4163291;28;20025;-59
2024/03/27 01:53:35;;;;;;;2.67;1.75;;;12.00;99.90;;;;;;4164354;28;20025;-59
2024/03/27 01:55:36;;;;;;;3.00;1.92;;;12.00;99.90;;;;;;4161210;28;20160;-59
2024/03/27 01:57:38;;;;;;;3.28;2.15;;;12.00;99.90;;;;;;4162177;28;20045;-60
2024/03/27 01:59:39;;;;;;;4.00;2.30;;;12.00;99.90;;;;;;4158903;28;20029;-59
2024/03/27 02:01:41;;;;;;;5.05;2.60;;;11.90;99.90;;;;;;4163081;28;20060;-59
2024/03/27 02:03:42;;;;;;;5.18;2.20;;;11.90;99.90;;;;;;4163228;28;20037;-67
2024/03/27 02:05:42;;;;;;;4.82;2.53;;;11.90;99.90;;;;;;4161339;28;20033;-67
2024/03/27 02:07:44;;;;;;;3.65;2.40;;;11.90;99.90;;;;;;4162793;28;20092;-67
2024/03/27 02:09:45;;;;;;;;;;;11.80;99.90;;;;;;4160760;28;20046;-66
2024/03/27 02:11:46;;;;;;;3.65;2.60;;;11.80;99.90;;;;;;4162465;28;20265;-67
2024/03/27 02:13:47;;;;;;;4.75;2.60;;;11.80;99.90;;;;;;4160390;28;20025;-67
2024/03/27 02:15:58;;;;;;;4.32;2.47;;;11.80;99.90;;;;;;4162407;28;20029;-67
2024/03/27 02:17:58;;;;;;;3.95;2.58;;;11.80;99.90;;;;;;4162658;28;20041;-67
2024/03/27 02:19:59;;;;;;;6.47;2.90;;;11.70;99.90;;;;;;4163828;28;20053;-67
2024/03/27 02:21:59;;;;;;;5.78;2.65;;;11.70;99.90;;;;;;4163038;28;20099;-67
2024/03/27 02:24:07;;;;;;;4.80;2.53;;;11.70;99.90;;;;;;4156622;28;20495;-67
2024/03/27 02:26:16;;;;;;;3.60;2.47;;;11.70;99.90;;;;;;4160132;28;20091;-67
2024/03/27 02:28:17;;;;;;;4.68;2.42;;;11.70;99.90;;;;;;4163280;28;20083;-67
2024/03/27 02:30:17;;;;;;;6.75;2.50;;;11.70;99.90;;;;;;4162959;28;20029;-67
2024/03/27 02:32:18;;;;;;;4.25;2.55;;;11.70;99.90;;;;;;4163037;28;20493;-67
2024/03/27 02:34:18;;;;;;;4.45;2.25;;;11.70;99.90;;;;;;4163372;28;20041;-66
2024/03/27 02:36:19;;;;;;;4.43;2.47;;;11.60;99.90;;;;;;4162118;28;20405;-67
2024/03/27 02:38:21;;;;;;;4.45;2.80;;;11.60;99.90;;;;;;4163811;28;20038;-66
2024/03/27 02:40:21;;;;;;;4.72;2.83;;;11.60;99.90;;;;;;4162860;28;20072;-67
2024/03/27 02:42:22;;;;;;;4.53;2.45;;;11.60;99.90;;;;;;4163156;28;20486;-67
2024/03/27 02:44:22;;;;;;;4.57;2.58;;;11.60;99.90;;;;;;4158817;28;20124;-67
2024/03/27 02:46:23;;;;;;;7.43;2.42;;;11.60;99.90;;;;;;4162802;28;20049;-67
2024/03/27 02:48:23;;;;;;;4.30;2.60;;;11.60;99.90;;;;;;4160432;28;20037;-67
2024/03/27 02:50:25;;;;;;;5.88;2.50;;;11.50;99.90;;;;;;4161247;28;20037;-67
2024/03/27 02:52:25;;;;;;;4.63;2.33;;;11.50;99.90;;;;;;4160454;28;20041;-67
2024/03/27 02:54:26;;;;;;;4.68;2.30;;;11.60;99.90;;;;;;4162767;28;20064;-67
2024/03/27 02:56:26;;;;;;;3.78;2.20;;;11.50;99.90;;;;;;4162188;28;20041;-67
2024/03/27 02:58:27;;;;;;;3.50;2.10;;;11.60;99.90;;;;;;4160154;28;20029;-67
2024/03/27 03:00:27;;;;;;;3.25;2.08;;;11.60;99.90;;;;;;4159046;28;20037;-67
2024/03/27 03:02:28;;;;;;;3.55;1.98;;;11.60;99.90;;;;;;4158662;28;20053;-67
2024/03/27 03:04:28;;;;;;;3.88;2.38;;;11.60;99.90;;;;;;4156200;28;20044;-67
2024/03/27 03:06:29;;;;;;;5.47;2.38;;;11.60;99.90;;;;;;4157216;28;20057;-66
2024/03/27 03:08:30;;;;;;;4.57;2.45;;;11.60;99.90;;;;;;4160937;28;20045;-67
2024/03/27 03:10:30;;;;;;;3.17;2.20;;;11.60;99.90;;;;;;4158895;28;20466;-67
2024/03/27 03:12:31;;;;;;;5.07;2.20;;;11.60;99.90;;;;;;4161642;28;20375;-67
2024/03/27 03:14:31;;;;;;;3.13;1.90;;;11.60;99.90;;;;;;4161713;28;20080;-67
2024/03/27 03:16:32;;;;;;;4.97;2.58;;;11.60;99.90;;;;;;4162588;28;20047;-67
2024/03/27 03:18:32;;;;;;;3.60;2.10;;;11.60;99.90;;;;;;4162625;28;20486;-67
2024/03/27 03:20:33;;;;;;;4.20;2.30;;;11.60;99.90;;;;;;4162108;28;20049;-67
2024/03/27 03:22:34;;;;;;;2.95;1.98;;;11.60;99.90;;;;;;4161425;28;20072;-67
2024/03/27 03:24:35;;;;;;;3.72;2.22;;;11.60;99.90;;;;;;4161825;28;20022;-63
2024/03/27 03:26:38;;;;;;;4.65;2.50;;;11.60;99.90;;;;;;4156872;28;20026;-63
2024/03/27 03:28:38;;;;;;;3.90;2.40;;;11.60;99.90;;;;;;4159500;28;20409;-63
2024/03/27 03:30:39;;;;;;;2.55;1.70;;;11.60;99.90;;;;;;4161957;28;20022;-63
2024/03/27 03:32:39;;;;;;;4.10;2.25;;;11.60;99.90;;;;;;4160958;28;20091;-64
2024/03/27 03:34:40;;;;;;;3.53;2.03;;;11.60;99.90;;;;;;4162524;28;20120;-63
2024/03/27 03:36:41;;;;;;;5.25;2.10;;;11.60;99.90;;;;;;4161464;28;20026;-63
2024/03/27 03:38:41;;;;;;;5.00;2.42;;;11.60;99.90;;;;;;4162240;28;20470;-63
2024/03/27 03:40:50;;;;;;;6.38;2.20;;;11.60;99.90;;;;;;4161938;28;20036;-63
2024/03/27 03:42:51;;;;;;;4.28;2.50;;;11.60;99.90;;;;;;4161934;28;20036;-64
2024/03/27 03:44:51;;;;;;;3.20;1.88;;;11.50;99.90;;;;;;4161545;28;20022;-64
2024/03/27 03:46:52;;;;;;;4.43;2.65;;;11.50;99.90;;;;;;4161746;28;20034;-64
2024/03/27 03:48:52;;;;;;;5.32;2.55;;;11.60;99.90;;;;;;4162120;28;20029;-64
2024/03/27 03:50:53;;;;;;;3.47;2.10;;;11.50;99.90;;;;;;4161153;28;20451;-64
2024/03/27 03:52:54;;;;;;;3.50;2.00;;;11.50;99.90;;;;;;4162547;28;20033;-63
2024/03/27 03:54:54;;;;;;;2.92;1.85;;;11.50;99.90;;;;;;4162150;28;20034;-63
2024/03/27 03:56:55;;;;;;;3.40;2.05;;;11.50;99.90;;;;;;4161344;28;20115;-63
2024/03/27 03:58:55;;;;;;;3.38;2.40;;;11.50;99.90;;;;;;4161384;28;20462;-63
2024/03/27 04:00:56;;;;;;;2.90;2.00;;;11.50;99.90;;;;;;4157119;28;20434;-64
2024/03/27 04:02:57;;;;;;;5.18;2.20;;;11.50;99.90;;;;;;4160151;28;20030;-64
2024/03/27 04:04:57;;;;;;;7.05;2.50;;;11.50;99.90;;;;;;4160630;28;20030;-64
2024/03/27 04:06:58;;;;;;;4.53;2.13;;;11.50;99.90;;;;;;4160775;28;20026;-64
2024/03/27 04:08:58;;;;;;;3.53;2.00;;;11.50;99.90;;;;;;4161625;28;20040;-63
2024/03/27 04:11:04;;;;;;;2.53;1.90;;;11.50;99.90;;;;;;4161803;28;20037;-63
2024/03/27 04:13:05;;;;;;;4.22;1.88;;;11.50;99.90;;;;;;4161922;28;20064;-63
2024/03/27 04:15:06;;;;;;;3.47;2.30;;;11.50;99.90;;;;;;4158692;28;20025;-64
2024/03/27 04:17:06;;;;;;;3.75;2.22;;;11.50;99.90;;;;;;4161618;28;20390;-63
2024/03/27 04:19:07;;;;;;;3.97;2.58;;;11.50;99.90;;;;;;4162096;28;20379;-63
2024/03/27 04:21:07;;;;;;;3.58;2.28;;;11.50;99.90;;;;;;4159801;28;20029;-63
2024/03/27 04:23:08;;;;;;;4.65;2.65;;;11.50;99.90;;;;;;4160660;28;22171;-63
2024/03/27 04:25:09;;;;;;;3.25;2.10;;;11.50;99.90;;;;;;4159722;28;20561;-65
2024/03/27 04:27:10;;;;;;;3.67;2.40;;;11.50;99.90;;;;;;4160575;28;20041;-64
2024/03/27 04:29:11;;;;;;;4.70;2.35;;;11.50;99.90;;;;;;4162227;28;20037;-63
2024/03/27 04:31:12;;;;;;;3.25;2.28;;;11.40;99.90;;;;;;4161235;28;20120;-64
2024/03/27 04:33:13;;;;;;;5.15;2.40;;;11.30;99.90;;;;;;4160008;28;20041;-63
2024/03/27 04:35:14;;;;;;;6.40;2.22;;;11.30;99.90;;;;;;4159446;28;20041;-64
2024/03/27 04:37:15;;;;;;;3.15;2.25;;;11.30;99.90;;;;;;4143347;28;20511;-65
2024/03/27 04:39:15;;;;;;;4.45;2.80;;;11.30;99.90;;;;;;4160612;28;20057;-64
2024/03/27 04:41:16;;;;;;;3.33;2.30;;;11.20;99.90;;;;;;4161073;28;20066;-65
2024/03/27 04:43:16;;;;;;;5.00;2.55;;;11.20;99.90;;;;;;4161870;28;20084;-66
2024/03/27 04:45:18;;;;;;;3.75;2.50;;;11.20;99.90;;;;;;4157158;28;20056;-63
2024/03/27 04:47:18;;;;;;;5.47;2.72;;;11.20;99.90;;;;;;4160486;28;20128;-64
2024/03/27 04:49:19;;;;;;;3.30;2.28;;;11.20;99.90;;;;;;4160987;28;20045;-65
2024/03/27 04:51:20;;;;;;;6.38;3.08;;;11.20;99.90;;;;;;4158830;28;20103;-64
2024/03/27 04:53:20;;;;;;;4.65;2.60;;;11.10;99.90;;;;;;4161288;28;20091;-64
2024/03/27 04:55:21;;;;;;;5.53;2.83;;;11.10;99.90;;;;;;4160697;28;20053;-64
2024/03/27 04:57:21;;;;;;;5.20;2.53;;;11.10;99.90;;;;;;4159941;28;20094;-63
2024/03/27 04:59:22;;;;;;;6.65;2.85;;;11.10;99.90;;;;;;4160370;28;20486;-63
2024/03/27 05:01:23;;;;;;;4.55;2.70;;;11.10;99.90;;;;;;4153322;28;20041;-64
2024/03/27 05:03:24;;;;;;;6.38;2.65;;;11.10;99.90;;;;;;4159937;28;20504;-63
2024/03/27 05:05:24;;;;;;;3.88;2.53;;;11.10;99.90;;;;;;4141569;28;20060;-64
2024/03/27 05:07:25;;;;;;;6.85;3.30;;;11.10;99.90;;;;;;4156602;28;20044;-64
2024/03/27 05:09:26;;;;;;;5.25;2.83;;;11.00;99.90;;;;;;4175058;28;20037;-63
2024/03/27 05:11:26;;;;;;;4.72;2.67;;;11.10;99.90;;;;;;4160355;28;20140;-64
2024/03/27 05:13:27;;;;;;;6.03;2.70;;;11.10;99.90;;;;;;4158492;28;20044;-67
2024/03/27 05:15:27;;;;;;;5.18;2.60;;;11.10;99.90;;;;;;4158121;28;20391;-67
2024/03/27 05:17:28;;;;;;;4.18;2.70;;;11.10;99.90;;;;;;4156870;28;20033;-63
2024/03/27 05:19:28;;;;;;;2.97;2.20;;;11.10;99.90;;;;;;4159040;28;20135;-63
2024/03/27 05:21:29;;;;;;;5.60;2.80;;;11.10;99.90;;;;;;4157863;28;20038;-63
2024/03/27 05:23:30;;;;;;;5.15;2.60;;;11.10;99.90;;;;;;4160251;28;20034;-59
2024/03/27 05:25:30;;;;;;;4.18;2.20;;;11.10;99.90;;;;;;4159574;28;20033;-58
2024/03/27 05:27:31;;;;;;;5.88;2.60;;;11.10;99.90;;;;;;4159032;28;20121;-59
2024/03/27 05:29:31;;;;;;;4.68;2.58;;;11.10;99.90;;;;;;4159714;28;20524;-63
2024/03/27 05:31:32;;;;;;;2.85;1.92;;;11.20;99.90;;;;;;4158413;28;20465;-68
2024/03/27 05:33:32;;;;;;;5.13;2.55;;;11.20;99.90;;;;;;4159085;28;20053;-67
2024/03/27 05:35:33;;;;;;;4.32;2.17;;;11.20;99.90;;;;;;4159898;28;20029;-68
2024/03/27 05:37:34;;;;;;;2.95;2.10;;;11.20;99.90;;;;;;4159675;28;20036;-67
2024/03/27 05:39:34;;;;;;;4.50;2.42;;;11.20;99.90;;;;;;4159207;28;20519;-67
2024/03/27 05:41:36;;;;;;;3.63;1.92;;;11.30;99.90;;;;;;4159279;28;20064;-59
2024/03/27 05:43:37;;;;;;;3.30;2.10;;;11.30;99.90;;;;;;4156561;28;20449;-68
2024/03/27 05:45:37;;;;;;;3.65;2.50;;;11.30;99.90;;;;;;4158940;28;20128;-66
2024/03/27 05:47:41;;;;;;;4.80;2.42;;;11.40;99.90;;;;;;4158173;28;20096;-68
2024/03/27 05:49:42;;;;;;;3.78;2.30;;;11.40;99.90;;;;;;4158587;28;20056;-59
2024/03/27 05:51:43;;;;;;;3.97;2.20;;;11.40;99.90;;;;;;4159108;28;20026;-67
2024/03/27 05:53:44;;;;;;;4.22;2.65;;;11.40;99.90;;;;;;4159772;28;20548;-67
2024/03/27 05:55:57;;;;;;;5.75;2.55;;;11.40;99.90;;;;;;4158449;28;20044;-67
2024/03/27 05:57:58;;;;;;;4.72;2.72;;;11.40;99.90;;;;;;4159033;28;20099;-59
2024/03/27 05:59:59;;;;;;;4.13;2.40;;;11.40;99.90;;;;;;4157977;28;20045;-59
2024/03/27 06:01:59;;;;;;;3.28;2.28;;;11.40;99.90;;;;;;4157911;28;20500;-58
2024/03/27 06:04:00;;;;;;;3.42;2.30;;;11.40;99.90;;;;;;4158893;28;20168;-59
2024/03/27 06:06:01;;;;;;;5.00;2.50;;;11.40;99.90;;;;;;4154772;28;20041;-59
2024/03/27 06:08:01;;;;;;;4.43;2.60;;;11.40;99.90;;;;;;4155663;28;20117;-59
2024/03/27 06:10:02;;;;;;;3.63;2.88;;;11.40;99.90;;;;;;4173867;28;20055;-60
2024/03/27 06:12:03;;;;;;;5.05;2.67;;;11.40;99.90;;;;;;4156704;28;20398;-59
2024/03/27 06:14:04;;;;;;;3.83;2.45;;;11.30;99.90;;;;;;4151067;28;20042;-59
2024/03/27 06:16:05;;;;;;;3.83;2.22;;;11.40;99.90;;;;;;4153615;28;20045;-59
2024/03/27 06:18:06;;;;;;;4.90;2.60;;;11.40;99.90;;;;;;4156970;28;20034;-59
2024/03/27 06:20:12;;;;;;;4.32;2.20;;;11.40;99.90;;;;;;4157359;28;20037;-60
2024/03/27 06:22:13;;;;;;;5.22;2.78;;;11.40;99.90;;;;;;4155433;28;20498;-59
2024/03/27 06:24:14;;;;;;;5.65;2.60;;;11.40;99.90;;;;;;4156410;28;20033;-59
2024/03/27 06:26:15;;;;;;;3.20;2.20;;;11.50;99.90;;;;;;4158984;28;20045;-59
2024/03/27 06:28:15;;;;;;;2.50;2.00;;;11.50;99.90;;;;;;4160109;28;20025;-59
2024/03/27 06:30:16;;;;;;;3.35;2.15;;;11.50;99.90;;;;;;4158218;28;20449;-59
2024/03/27 06:32:17;;;;;;;3.72;2.40;;;11.50;99.90;;;;;;4191920;28;20052;-61
2024/03/27 06:34:17;;;;;;;3.33;2.45;;;11.50;99.90;;;;;;4161602;28;20110;-60
2024/03/27 06:36:18;;;;;;;6.75;3.20;;;11.60;99.90;;;;;;4158480;28;20029;-59
2024/03/27 06:38:20;;;;;;;10.68;6.35;;;11.60;99.90;;;;;;4156620;28;20081;-59
2024/03/27 06:40:20;;;;;;;5.40;3.50;;;11.60;99.90;;;;;;4151995;28;20069;-59
2024/03/27 06:42:21;;;;;;;3.58;2.30;;;11.60;99.90;;;;;;4139656;28;20041;-59
2024/03/27 06:44:22;;;;;;;2.47;2.00;;;11.60;99.90;;;;;;4155582;28;20040;-58
2024/03/27 06:46:24;;;;;;;4.70;2.22;;;11.60;99.90;;;;;;4156990;28;20037;-58
2024/03/27 06:48:33;;;;;;;3.10;2.22;;;11.60;99.90;;;;;;4150390;28;20038;-59
2024/03/27 06:50:36;;;;;;;4.22;1.70;;;11.70;99.90;;;;;;4157049;28;20521;-58
2024/03/27 06:52:37;;;;;;;2.63;1.88;;;11.70;99.90;;;;;;4154731;28;20056;-59
2024/03/27 06:54:38;;;;;;;2.50;2.00;;;11.70;99.90;;;;;;4160821;28;20125;-59
2024/03/27 06:56:39;;;;;;;2.60;1.77;;;11.70;99.90;;;;;;4156049;28;20053;-59
2024/03/27 06:58:40;;;;;;;3.90;1.80;;;11.70;99.90;;;;;;4158378;28;20044;-59
2024/03/27 07:00:41;;;;;;;3.65;1.95;;;11.70;99.90;;;;;;4155924;28;20433;-59
2024/03/27 07:02:42;;;;;;;1.35;1.25;;;11.70;99.90;;;;;;4175145;28;20036;-59
2024/03/27 07:04:43;;;;;;;4.35;1.60;;;11.70;99.90;;;;;;4157086;28;20030;-59
2024/03/27 07:06:44;;;;;;;1.40;1.10;;;11.70;99.90;;;;;;4157219;28;20379;-59
2024/03/27 07:08:44;;;;;;;1.50;0.88;;;11.70;99.90;;;;;;4153760;28;20068;-59
2024/03/27 07:10:45;;;;;;;2.47;1.23;;;11.70;99.90;;;;;;4157288;28;20048;-59
2024/03/27 07:12:45;;;;;;;2.28;1.40;;;11.70;99.90;;;;;;4159160;28;20041;-65
2024/03/27 07:14:49;;;;;;;1.90;1.02;;;11.70;99.90;;;;;;4160528;28;20037;-58
2024/03/27 07:16:50;;;;;;;1.52;1.00;;;11.70;99.90;;;;;;4160709;28;20087;-59
2024/03/27 07:18:51;;;;;;;0.75;0.68;;;11.70;99.90;;;;;;4162922;28;20025;-59
2024/03/27 07:20:56;;;;;;;0.70;0.70;;;11.70;99.90;;;;;;4161112;28;20034;-58
2024/03/27 07:22:57;;;;;;;0.95;0.90;;;11.70;99.90;;;;;;4159347;28;20045;-61
2024/03/27 07:24:58;;;;;;;0.93;0.80;;;11.60;99.90;;;;;;4162075;28;20033;-57
2024/03/27 07:26:59;;;;;;;1.40;0.90;;;11.60;99.90;;;;;;4158720;28;20113;-59
2024/03/27 07:28:59;;;;;;;1.00;0.80;;;11.60;99.90;;;;;;4160051;28;20473;-57
2024/03/27 07:31:01;;;;;;;1.02;0.90;;;11.60;99.90;;;;;;4159312;28;20073;-56
2024/03/27 07:33:02;;;;;;;1.35;1.05;;;11.60;99.90;;;;;;4160245;28;20116;-59
2024/03/27 07:35:04;;;;;;;0.82;0.68;;;11.60;99.90;;;;;;4156658;28;20029;-59
2024/03/27 07:37:05;;;;;;;1.40;0.98;;;11.60;99.90;;;;;;4156708;28;20038;-58
2024/03/27 07:39:06;;;;;;;1.52;0.90;;;11.60;99.90;;;;;;4158986;28;20568;-58
2024/03/27 07:41:07;;;;;;;1.10;1.00;;;11.60;99.90;;;;;;4154571;28;20037;-59
2024/03/27 07:43:08;;;;;;;1.55;0.85;;;11.50;99.90;;;;;;4159628;28;20107;-58
2024/03/27 07:45:08;;;;;;;0.85;0.85;;;11.50;99.90;;;;;;4158208;28;20040;-59
2024/03/27 07:47:09;;;;;;;2.00;1.00;;;11.50;99.90;;;;;;4156851;28;20091;-58
2024/03/27 07:49:10;;;;;;;1.33;1.00;;;11.60;99.90;;;;;;4154090;28;20430;-59
2024/03/27 07:51:11;;;;;;;1.17;0.90;;;11.50;99.90;;;;;;4155957;28;20032;-58
2024/03/27 07:53:11;;;;;;;1.10;1.00;;;11.50;99.90;;;;;;4159903;28;20068;-58
2024/03/27 07:55:12;;;;;;;1.73;1.08;;;11.50;99.90;;;;;;4152989;28;20038;-58
2024/03/27 07:57:13;;;;;;;1.70;1.20;;;11.50;99.90;;;;;;4157972;28;20028;-58
2024/03/27 07:59:14;;;;;;;2.03;1.00;;;11.60;99.90;;;;;;4158190;28;20394;-58
2024/03/27 08:01:15;;;;;;;1.20;1.10;;;11.60;99.90;;;;;;4157005;28;20050;-58
2024/03/27 08:03:15;;;;;;;1.40;1.10;;;11.60;99.90;;;;;;4159163;28;20398;-59
2024/03/27 08:05:16;;;;;;;1.00;0.90;;;11.60;99.90;;;;;;4156206;28;20041;-58
2024/03/27 08:07:17;;;;;;;2.88;1.75;;;11.70;99.90;;;;;;4158817;28;20504;-59
2024/03/27 08:09:22;;;;;;;2.65;1.95;;;11.70;99.90;;;;;;4148252;28;20117;-62
2024/03/27 08:11:22;;;;;;;1.35;1.20;;;11.80;99.90;;;;;;4147699;28;20456;-58
2024/03/27 08:13:24;;;;;;;1.40;1.13;;;11.80;99.90;;;;;;4159437;28;20037;-58
2024/03/27 08:15:24;;;;;;;1.38;1.27;;;11.80;99.90;;;;;;4152373;28;20065;-58
2024/03/27 08:17:25;;;;;;;1.30;1.20;;;11.70;99.90;;;;;;4155504;28;20033;-59
2024/03/27 08:19:26;;;;;;;1.50;1.20;;;11.80;99.90;;;;;;4158256;28;20107;-59
2024/03/27 08:21:27;;;;;;;1.63;1.40;;;11.80;99.90;;;;;;4154646;28;20506;-59
2024/03/27 08:23:28;;;;;;;2.92;1.05;;;11.70;99.90;;;;;;4153565;28;20061;-67
2024/03/27 08:25:32;;;;;;;1.98;1.40;;;11.80;99.90;;;;;;4159231;28;20048;-60
2024/03/27 08:27:33;;;;;;;1.20;1.10;;;11.80;99.90;;;;;;4158519;28;20735;-59
2024/03/27 08:29:34;;;;;;;1.23;1.13;;;11.80;99.90;;;;;;4157905;28;20041;-59
2024/03/27 08:31:35;;;;;;;1.60;1.23;;;11.80;99.90;;;;;;4158085;28;20045;-59
2024/03/27 08:33:35;;;;;;;2.00;1.33;;;11.80;99.90;;;;;;4159728;28;20470;-59
2024/03/27 08:35:40;;;;;;;1.52;1.38;;;11.90;99.90;;;;;;4156623;28;20508;-59
2024/03/27 08:37:42;;;;;;;1.17;0.90;;;11.90;99.90;;;;;;4158280;28;20048;-59
2024/03/27 08:39:42;;;;;;;1.77;1.38;;;12.00;99.90;;;;;;4157396;28;20037;-59
2024/03/27 08:41:47;;;;;;;1.67;1.45;;;12.00;99.90;;;;;;4159659;28;20048;-59
2024/03/27 08:43:47;;;;;;;1.45;1.05;;;12.10;99.90;;;;;;4159659;28;20041;-59
2024/03/27 08:45:48;;;;;;;1.25;1.15;;;12.10;99.90;;;;;;4157401;28;20059;-59
2024/03/27 08:47:49;;;;;;;2.65;1.58;;;12.20;99.90;;;;;;4158723;28;20041;-60
2024/03/27 08:49:49;;;;;;;1.85;1.50;;;12.20;99.90;;;;;;4157039;28;20174;-60
2024/03/27 08:51:50;;;;;;;2.08;1.88;;;12.10;99.90;;;;;;4157836;28;20037;-59
2024/03/27 08:53:52;;;;;;;2.50;2.00;;;12.10;99.90;;;;;;4156160;28;20049;-59
2024/03/27 08:55:53;;;;;;;2.10;1.90;;;12.00;99.90;;;;;;4156906;28;20033;-59
2024/03/27 08:57:53;;;;;;;2.25;1.65;;;12.00;99.90;;;;;;4157197;28;20140;-59
2024/03/27 08:59:54;;;;;;;3.90;2.20;;;12.10;99.90;;;;;;4155462;28;20384;-60
2024/03/27 09:01:55;;;;;;;2.25;1.77;;;12.10;99.90;;;;;;4155798;28;20040;-59
2024/03/27 09:03:56;;;;;;;2.20;1.70;;;12.10;99.90;;;;;;4157702;28;20029;-59
2024/03/27 09:05:56;;;;;;;2.42;1.90;;;12.00;99.90;;;;;;4156696;28;20365;-60
2024/03/27 09:07:57;;;;;;;2.83;1.95;;;12.10;99.90;;;;;;4158595;28;20040;-59
2024/03/27 09:09:59;;;;;;;2.75;2.30;;;12.10;99.90;;;;;;4157131;28;20108;-59
2024/03/27 09:12:00;;;;;;;2.42;2.20;;;12.00;99.90;;;;;;4153936;28;20078;-59
2024/03/27 09:14:01;;;;;;;2.05;1.85;;;12.10;99.90;;;;;;4157594;28;20096;-59
2024/03/27 09:16:03;;;;;;;2.13;1.88;;;12.10;99.90;;;;;;4157521;28;20099;-59
2024/03/27 09:18:05;;;;;;;2.42;2.20;;;12.10;99.90;;;;;;4156091;28;20037;-59
2024/03/27 09:20:06;;;;;;;2.30;2.10;;;12.00;99.90;;;;;;4158183;28;20033;-60
2024/03/27 09:22:07;;;;;;;2.35;1.92;;;11.90;99.90;;;;;;4157244;28;20025;-59
2024/03/27 09:24:08;;;;;;;2.83;2.08;;;12.00;99.90;;;;;;4157621;28;20025;-59
2024/03/27 09:26:09;;;;;;;2.95;2.40;;;12.00;99.90;;;;;;4157793;28;20046;-59
2024/03/27 09:28:09;;;;;;;2.30;2.10;;;12.00;99.90;;;;;;4157453;28;20120;-59
2024/03/27 09:30:11;;;;;;;2.47;2.15;;;12.00;99.90;;;;;;4156051;28;20470;-59
2024/03/27 09:32:12;;;;;;;2.28;2.08;;;12.00;99.90;;;;;;4158476;28;20034;-59
2024/03/27 09:34:13;;;;;;;2.50;1.95;;;12.00;99.90;;;;;;4158223;28;20587;-59
2024/03/27 09:36:15;;;;;;;3.20;2.53;;;12.10;99.90;;;;;;4158463;28;20025;-58
2024/03/27 09:38:16;;;;;;;3.83;2.60;;;12.10;99.90;;;;;;4159391;28;20583;-59
2024/03/27 09:40:17;;;;;;;3.58;2.42;;;12.10;99.90;;;;;;4155047;28;20038;-57
2024/03/27 09:42:20;;;;;;;3.40;2.63;;;12.10;99.90;;;;;;4155344;28;20498;-58
2024/03/27 09:44:21;;;;;;;3.10;2.60;;;12.10;99.90;;;;;;4152533;28;20053;-59
2024/03/27 09:46:22;;;;;;;4.07;2.80;;;12.00;99.90;;;;;;4158112;28;20038;-59
2024/03/27 09:48:26;;;;;;;3.97;2.97;;;12.10;99.90;;;;;;4158234;28;20052;-58
2024/03/27 09:50:31;;;;;;;6.18;3.33;;;12.10;99.90;;;;;;4158007;28;20429;-58
2024/03/27 09:52:34;;;;;;;4.45;2.80;;;12.00;99.90;;;;;;4156620;28;20045;-59
2024/03/27 09:54:35;;;;;;;;;;;12.00;99.90;;;;;;4160522;28;20060;-59
2024/03/27 09:56:37;;;;;;;3.10;2.60;;;11.90;99.90;;;;;;4157138;28;19909;-58
2024/03/27 09:58:38;;;;;;;2.88;2.47;;;12.00;99.90;;;;;;4161252;28;20124;-59
2024/03/27 10:00:39;;;;;;;3.25;2.50;;;12.00;99.90;;;;;;4160537;28;22202;-58
2024/03/27 10:02:40;;;;;;;5.22;3.10;;;12.00;99.90;;;;;;4159642;28;20401;-59
2024/03/27 10:04:40;;;;;;;3.88;3.05;;;12.00;99.90;;;;;;4164465;28;20509;-58
2024/03/27 10:06:41;;;;;;;4.00;3.42;;;12.00;99.90;;;;;;4160416;28;20041;-58
2024/03/27 10:08:41;;;;;;;5.88;3.75;;;11.90;99.90;;;;;;4162165;28;20497;-58
2024/03/27 10:10:42;;;;;;;3.50;2.97;;;11.90;99.90;;;;;;4160581;28;20034;-59
2024/03/27 10:12:43;;;;;;;4.30;3.47;;;11.90;99.90;;;;;;4162075;28;20445;-58
2024/03/27 10:14:44;;;;;;;3.67;3.05;;;11.90;99.90;;;;;;4163590;28;20114;-58
2024/03/27 10:16:44;;;;;;;4.40;3.70;;;11.80;99.90;;;;;;4160884;28;20026;-58
2024/03/27 10:18:45;;;;;;;3.83;3.10;;;11.80;99.90;;;;;;4161017;28;20175;-58
2024/03/27 10:20:46;;;;;;;3.60;3.00;;;11.80;99.90;;;;;;4162619;28;20036;-58
2024/03/27 10:22:47;;;;;;;5.18;2.83;;;11.70;99.90;;;;;;4161745;28;20378;-58
2024/03/27 10:24:48;;;;;;;3.45;2.97;;;11.70;99.90;;;;;;4159542;28;20029;-58
2024/03/27 10:26:51;;;;;;;5.22;2.92;;;11.70;99.90;;;;;;4159131;28;20116;-58
2024/03/27 10:28:52;;;;;;;3.38;2.83;;;11.70;99.90;;;;;;4159469;28;20029;-57
2024/03/27 10:30:57;;;;;;;4.60;3.47;;;11.70;99.90;;;;;;4161371;28;20108;-59